Time;durP1;ratioP1;P1;durP2;ratioP2;P2;SDS_P1;SDS_P2;PMS_P1;PMS_P2;Temp;Humidity;BMP_temperature;BMP_pressure;BME280_temperature;BME280_humidity;BME280_pressure;Samples;Min_cycle;Max_cycle;Signal;HPM_P1;HPM_P2
2023/04/13 00:00:35;;;;;;;2.67;1.15;;;;;;;7.01;100.00;99288.84;4923740;29;20040;-85
2023/04/13 00:03:00;;;;;;;1.52;1.35;;;;;;;6.96;100.00;99278.09;4912369;29;20035;-84
2023/04/13 00:05:27;;;;;;;1.88;1.17;;;;;;;6.98;100.00;99275.72;4914483;29;20087;-85
2023/04/13 00:07:53;;;;;;;2.17;1.52;;;;;;;7.02;100.00;99268.19;4913177;29;20035;-85
2023/04/13 00:10:20;;;;;;;7.97;1.58;;;;;;;7.01;100.00;99276.91;4923297;29;20663;-85
2023/04/13 00:12:48;;;;;;;2.85;1.45;;;;;;;6.78;100.00;99266.09;4907594;29;20091;-85
2023/04/13 00:15:16;;;;;;;1.08;0.98;;;;;;;6.98;100.00;99256.25;4895983;29;20554;-85
2023/04/13 00:17:42;;;;;;;6.68;1.70;;;;;;;6.88;100.00;99245.88;4925343;29;20031;-85
2023/04/13 00:20:12;;;;;;;1.92;1.30;;;;;;;6.81;100.00;99251.41;4915126;29;20028;-85
2023/04/13 00:22:42;;;;;;;3.65;1.58;;;;;;;6.72;100.00;99243.44;4921578;29;20024;-85
2023/04/13 00:25:09;;;;;;;5.97;1.33;;;;;;;6.89;100.00;99244.69;4911291;29;20074;-85
2023/04/13 00:27:37;;;;;;;1.70;1.15;;;;;;;6.92;100.00;99235.56;4907266;29;20028;-85
2023/04/13 00:30:06;;;;;;;2.70;1.70;;;;;;;6.83;100.00;99237.91;4929525;29;20091;-86
2023/04/13 00:32:32;;;;;;;2.80;1.30;;;;;;;6.79;100.00;99242.66;4921519;29;20410;-85
2023/04/13 00:34:57;;;;;;;4.07;1.45;;;;;;;6.59;100.00;99239.44;4926556;29;20042;-86
2023/04/13 00:37:22;;;;;;;2.55;1.33;;;;;;;6.67;100.00;99227.94;4910465;29;20557;-86
2023/04/13 00:39:49;;;;;;;2.10;1.17;;;;;;;6.78;100.00;99227.97;4912544;29;20118;-86
2023/04/13 00:42:17;;;;;;;5.43;1.65;;;;;;;6.77;100.00;99234.72;4910625;29;20059;-86
2023/04/13 00:44:43;;;;;;;7.13;1.70;;;;;;;6.72;100.00;99212.84;4909962;29;20046;-86
2023/04/13 00:47:08;;;;;;;4.10;1.60;;;;;;;7.01;100.00;99227.63;4909616;29;20032;-85
2023/04/13 00:49:34;;;;;;;3.42;1.33;;;;;;;6.70;100.00;99218.00;4906980;29;20039;-86
2023/04/13 00:52:01;;;;;;;2.05;1.20;;;;;;;6.66;100.00;99220.78;4922963;29;20099;-85
2023/04/13 00:54:28;;;;;;;3.25;1.63;;;;;;;6.95;100.00;99218.06;4906737;29;20067;-85
2023/04/13 00:56:55;;;;;;;5.63;1.65;;;;;;;6.74;100.00;99207.69;4903473;29;20031;-84
2023/04/13 00:59:22;;;;;;;1.85;1.30;;;;;;;6.89;100.00;99202.97;4906304;29;20131;-85
2023/04/13 01:01:55;;;;;;;4.25;1.60;;;;;;;6.71;100.00;99198.16;4901081;29;20123;-85
2023/04/13 01:04:21;;;;;;;;;;;;;;;6.91;100.00;99206.97;4924064;29;20061;-84
2023/04/13 01:07:12;;;;;;;2.17;1.50;;;;;;;6.91;100.00;99201.41;4924263;29;20501;-85
2023/04/13 01:09:51;;;;;;;2.67;1.17;;;;;;;6.74;100.00;99173.53;4904152;29;20047;-85
2023/04/13 01:12:25;;;;;;;3.42;1.65;;;;;;;6.90;100.00;99199.00;4916679;29;20032;-86
2023/04/13 01:15:12;;;;;;;2.78;1.60;;;;;;;6.89;100.00;99197.41;4916950;29;20501;-86
2023/04/13 01:17:40;;;;;;;2.00;1.35;;;;;;;6.91;100.00;99192.25;4921818;29;20036;-85
2023/04/13 01:20:11;;;;;;;2.60;1.42;;;;;;;6.77;100.00;99172.72;4910839;29;20454;-84
2023/04/13 01:22:44;;;;;;;2.05;1.73;;;;;;;6.82;100.00;99194.63;4910487;29;20095;-85
2023/04/13 01:25:24;;;;;;;4.32;1.50;;;;;;;6.90;100.00;99199.00;4916876;29;20053;-85
2023/04/13 01:28:12;;;;;;;4.80;1.88;;;;;;;6.92;100.00;99188.28;4900997;29;20032;-85
2023/04/13 01:30:39;;;;;;;7.88;1.67;;;;;;;6.67;100.00;99191.78;4907464;29;20038;-85
2023/04/13 01:33:05;;;;;;;2.83;1.40;;;;;;;6.97;100.00;99193.44;4909448;29;20035;-85
2023/04/13 01:35:31;;;;;;;3.63;1.40;;;;;;;7.06;100.00;99195.84;4909136;29;20028;-86
2023/04/13 01:37:57;;;;;;;2.70;1.35;;;;;;;6.94;100.00;99188.69;4905311;29;20446;-85
2023/04/13 01:40:25;;;;;;;5.35;1.77;;;;;;;6.79;100.00;99192.59;4910583;29;20036;-85
2023/04/13 01:42:51;;;;;;;2.80;1.65;;;;;;;6.87;100.00;99174.75;4924277;29;20031;-85
2023/04/13 01:45:28;;;;;;;2.33;2.00;;;;;;;6.73;100.00;99172.75;4908233;29;20032;-85
2023/04/13 01:48:23;;;;;;;2.03;1.17;;;;;;;6.98;100.00;99183.09;4906008;29;20040;-85
2023/04/13 01:50:59;;;;;;;3.00;1.35;;;;;;;7.12;100.00;99188.69;4906516;29;20027;-85
2023/04/13 01:53:29;;;;;;;2.50;1.58;;;;;;;7.05;100.00;99183.13;4903753;29;20368;-85
2023/04/13 01:55:55;;;;;;;2.80;1.30;;;;;;;6.89;100.00;99186.28;4922469;29;20032;-86
2023/04/13 01:58:22;;;;;;;3.55;1.50;;;;;;;6.53;100.00;99188.97;4922990;29;20050;-85
2023/04/13 02:00:47;;;;;;;3.30;1.30;;;;;;;6.59;100.00;99189.38;4907059;29;20055;-86
2023/04/13 02:03:14;;;;;;;4.55;1.40;;;;;;;6.70;100.00;99196.59;4920506;29;20063;-85
2023/04/13 02:05:39;;;;;;;3.17;1.42;;;;;;;6.99;100.00;99199.41;4927883;29;20034;-85
2023/04/13 02:08:07;;;;;;;2.67;1.85;;;;;;;6.63;100.00;99196.53;4912124;29;20043;-86
2023/04/13 02:10:34;;;;;;;4.93;1.33;;;;;;;7.07;100.00;99192.66;4923842;29;20086;-86
2023/04/13 02:13:03;;;;;;;6.43;1.58;;;;;;;7.05;100.00;99178.34;4919298;29;20032;-85
2023/04/13 02:15:29;;;;;;;2.90;2.17;;;;;;;7.00;100.00;99192.69;4920532;29;20040;-86
2023/04/13 02:17:55;;;;;;;7.20;3.25;;;;;;;6.90;100.00;99187.88;4919016;29;20496;-86
2023/04/13 02:20:20;;;;;;;2.83;1.52;;;;;;;7.08;100.00;99196.25;4902079;29;20027;-86
2023/04/13 02:22:46;;;;;;;4.20;1.40;;;;;;;7.27;100.00;99201.44;4905505;29;20024;-86
2023/04/13 02:25:14;;;;;;;2.38;1.35;;;;;;;6.68;100.00;99181.47;4921323;29;20071;-85
2023/04/13 02:27:40;;;;;;;3.25;1.27;;;;;;;7.08;100.00;99199.84;4905395;29;20036;-86
2023/04/13 02:30:06;;;;;;;1.83;1.42;;;;;;;6.97;100.00;99193.44;4920006;29;20047;-86
2023/04/13 02:32:34;;;;;;;3.97;1.25;;;;;;;7.17;100.00;99201.41;4908211;29;20122;-84
2023/04/13 02:35:00;;;;;;;3.30;1.67;;;;;;;7.00;100.00;99180.72;4909761;29;20620;-84
2023/04/13 02:37:28;;;;;;;2.45;1.45;;;;;;;6.94;100.00;99179.56;4908121;29;20693;-84
2023/04/13 02:39:54;;;;;;;2.65;1.50;;;;;;;7.08;100.00;99196.25;4908359;29;20040;-84
2023/04/13 02:42:20;;;;;;;3.00;1.30;;;;;;;7.21;100.00;99196.66;4919870;29;20122;-84
2023/04/13 02:44:46;;;;;;;1.02;0.95;;;;;;;7.19;100.00;99204.59;4918754;29;20032;-83
2023/04/13 02:47:11;;;;;;;4.22;1.38;;;;;;;7.25;100.00;99208.59;4905651;29;20434;-84
2023/04/13 02:49:37;;;;;;;2.00;1.00;;;;;;;7.17;100.00;99213.38;4906804;29;20042;-84
2023/04/13 02:52:02;;;;;;;1.85;1.42;;;;;;;7.29;100.00;99203.81;4918389;29;20039;-84
2023/04/13 02:54:28;;;;;;;2.10;1.15;;;;;;;6.88;100.00;99204.94;4920043;29;20028;-84
2023/04/13 02:56:54;;;;;;;2.58;1.20;;;;;;;7.01;100.00;99210.94;4908295;29;20344;-84
2023/04/13 02:59:21;;;;;;;2.95;1.40;;;;;;;7.27;100.00;99229.28;4924925;29;20370;-84
2023/04/13 03:01:47;;;;;;;2.20;1.40;;;;;;;7.29;100.00;99226.09;4905333;29;20056;-85
2023/04/13 03:04:12;;;;;;;2.95;1.27;;;;;;;7.13;100.00;99207.00;4909415;29;20070;-85
2023/04/13 03:06:38;;;;;;;2.15;1.38;;;;;;;7.03;100.00;99216.91;4912036;29;20513;-85
2023/04/13 03:09:04;;;;;;;4.93;1.40;;;;;;;7.07;100.00;99220.50;4925725;29;20154;-84
2023/04/13 03:11:29;;;;;;;2.38;1.33;;;;;;;7.22;100.00;99229.66;4908236;29;20083;-84
2023/04/13 03:13:56;;;;;;;4.13;2.25;;;;;;;7.33;100.00;99233.25;4920171;29;20394;-84
2023/04/13 03:16:22;;;;;;;1.67;1.10;;;;;;;7.22;100.00;99232.44;4924007;29;20036;-84
2023/04/13 03:18:48;;;;;;;1.33;0.90;;;;;;;7.24;100.00;99220.91;4909820;29;20513;-84
2023/04/13 03:21:13;;;;;;;3.28;1.50;;;;;;;7.33;100.00;99236.03;4922110;29;20442;-84
2023/04/13 03:23:39;;;;;;;2.50;1.67;;;;;;;7.05;100.00;99236.00;4907754;29;20036;-84
2023/04/13 03:26:05;;;;;;;2.72;1.60;;;;;;;6.92;100.00;99250.25;4907580;29;20031;-84
2023/04/13 03:28:30;;;;;;;3.28;1.40;;;;;;;7.07;100.00;99253.88;4920355;29;20024;-84
2023/04/13 03:30:55;;;;;;;2.28;1.58;;;;;;;7.21;100.00;99263.44;4907675;29;20036;-84
2023/04/13 03:33:21;;;;;;;3.05;1.30;;;;;;;7.07;100.00;99259.44;4907095;29;20494;-84
2023/04/13 03:35:46;;;;;;;2.15;1.58;;;;;;;7.21;100.00;99269.00;4907418;29;20032;-85
2023/04/13 03:38:12;;;;;;;3.28;1.55;;;;;;;6.96;100.00;99264.19;4908829;29;20517;-83
2023/04/13 03:40:37;;;;;;;1.73;1.42;;;;;;;7.22;100.00;99267.81;4907069;29;20464;-83
2023/04/13 03:43:02;;;;;;;2.05;1.85;;;;;;;7.12;100.00;99266.59;4909753;29;20111;-84
2023/04/13 03:45:28;;;;;;;2.65;1.70;;;;;;;7.13;100.00;99263.44;4902497;29;20485;-83
2023/04/13 03:47:53;;;;;;;2.60;1.63;;;;;;;7.04;100.00;99276.13;4911005;29;20101;-84
2023/04/13 03:50:19;;;;;;;2.45;1.88;;;;;;;7.02;100.00;99270.97;4910039;29;20047;-84
2023/04/13 03:52:44;;;;;;;3.08;1.73;;;;;;;7.07;100.00;99281.69;4907760;29;20043;-84
2023/04/13 03:55:09;;;;;;;4.43;2.03;;;;;;;7.25;100.00;99275.38;4922147;29;20028;-84
2023/04/13 03:57:35;;;;;;;4.15;2.22;;;;;;;6.99;100.00;99285.66;4923418;29;20466;-84
2023/04/13 04:00:01;;;;;;;3.25;1.70;;;;;;;7.12;100.00;99295.22;4910540;29;20040;-84
2023/04/13 04:02:26;;;;;;;4.43;1.77;;;;;;;7.18;100.00;99303.97;4910943;29;20035;-84
2023/04/13 04:04:52;;;;;;;3.97;1.80;;;;;;;7.22;100.00;99304.00;4905086;29;20039;-84
2023/04/13 04:07:21;;;;;;;2.17;1.95;;;;;;;7.38;100.00;99306.41;4907477;29;20067;-84
2023/04/13 04:09:47;;;;;;;2.25;2.05;;;;;;;7.30;100.00;99311.19;4908071;29;20027;-84
2023/04/13 04:12:12;;;;;;;3.33;1.83;;;;;;;7.03;100.00;99313.50;4910539;29;20031;-84
2023/04/13 04:14:37;;;;;;;3.60;2.20;;;;;;;6.97;100.00;99290.81;4891806;29;20122;-84
2023/04/13 04:17:03;;;;;;;2.17;1.83;;;;;;;7.04;100.00;99315.88;4908368;29;21418;-84
2023/04/13 04:19:28;;;;;;;5.07;1.63;;;;;;;6.91;100.00;99317.41;4907064;29;20075;-84
2023/04/13 04:21:56;;;;;;;4.13;2.25;;;;;;;7.11;100.00;99327.03;4908127;29;20505;-84
2023/04/13 04:24:22;;;;;;;5.93;2.40;;;;;;;6.96;100.00;99311.47;4928771;29;20038;-84
2023/04/13 04:26:48;;;;;;;2.65;1.92;;;;;;;7.11;100.00;99313.13;4907264;29;20028;-83
2023/04/13 04:29:15;;;;;;;2.80;2.33;;;;;;;7.23;100.00;99327.84;4912931;29;20031;-84
2023/04/13 04:31:43;;;;;;;5.22;2.42;;;;;;;7.15;100.00;99329.00;4922457;29;20175;-84
2023/04/13 04:34:09;;;;;;;3.05;2.33;;;;;;;7.20;100.00;99337.00;4910599;29;20038;-85
2023/04/13 04:36:35;;;;;;;4.15;2.15;;;;;;;7.10;100.00;99342.16;4903901;29;20529;-85
2023/04/13 04:39:03;;;;;;;3.97;2.72;;;;;;;7.04;100.00;99349.28;4900934;29;20040;-85
2023/04/13 04:41:29;;;;;;;8.07;2.90;;;;;;;7.04;100.00;99327.00;4922628;29;20490;-85
2023/04/13 04:43:55;;;;;;;10.40;3.65;;;;;;;6.93;100.00;99362.31;4917330;29;20118;-85
2023/04/13 04:46:24;;;;;;;5.85;2.95;;;;;;;6.98;100.00;99353.63;4897001;29;20313;-85
2023/04/13 04:48:50;;;;;;;5.68;3.00;;;;;;;7.10;100.00;99360.81;4899730;29;20498;-84
2023/04/13 04:51:16;;;;;;;6.13;3.13;;;;;;;6.96;100.00;99357.94;4921654;29;20694;-84
2023/04/13 04:53:41;;;;;;;4.93;2.35;;;;;;;6.96;100.00;99366.28;4918668;29;20102;-84
2023/04/13 04:56:07;;;;;;;11.77;2.72;;;;;;;7.00;100.00;99373.50;4908721;29;20071;-84
2023/04/13 04:58:32;;;;;;;3.70;2.97;;;;;;;6.94;100.00;99369.50;4919943;29;20199;-84
2023/04/13 05:00:58;;;;;;;6.22;2.40;;;;;;;6.81;100.00;99380.16;4925659;29;20043;-85
2023/04/13 05:03:23;;;;;;;3.08;2.20;;;;;;;6.85;100.00;99374.59;4912150;29;20031;-85
2023/04/13 05:05:49;;;;;;;5.82;3.08;;;;;;;6.97;100.00;99377.03;4906709;29;20461;-85
2023/04/13 05:08:14;;;;;;;5.85;3.40;;;;;;;7.01;100.00;99377.84;4902202;29;20032;-84
2023/04/13 05:10:45;;;;;;;9.32;3.08;;;;;;;6.75;100.00;99372.56;4915188;29;20474;-84
2023/04/13 05:13:11;;;;;;;7.88;3.25;;;;;;;6.70;100.00;99360.63;4902468;29;20036;-84
2023/04/13 05:15:36;;;;;;;8.60;3.05;;;;;;;6.87;100.00;99386.94;4911677;29;20039;-84
2023/04/13 05:18:04;;;;;;;7.43;3.30;;;;;;;6.84;100.00;99390.50;4910797;29;20034;-84
2023/04/13 05:20:31;;;;;;;6.68;4.38;;;;;;;6.75;100.00;99389.25;4909629;29;20051;-85
2023/04/13 05:22:57;;;;;;;12.30;3.05;;;;;;;6.79;100.00;99390.06;4908973;29;20043;-84
2023/04/13 05:25:23;;;;;;;7.05;4.00;;;;;;;6.74;100.00;99390.44;4920520;29;20027;-84
2023/04/13 05:27:48;;;;;;;7.57;4.00;;;;;;;6.70;100.00;99407.09;4924851;29;20035;-84
2023/04/13 05:30:14;;;;;;;7.00;3.20;;;;;;;6.78;100.00;99414.28;4908974;29;20091;-84
2023/04/13 05:32:39;;;;;;;8.75;3.65;;;;;;;6.65;100.00;99422.16;4910011;29;20046;-85
2023/04/13 05:35:05;;;;;;;13.45;4.20;;;;;;;6.79;100.00;99415.09;4924472;29;20046;-84
2023/04/13 05:37:31;;;;;;;5.80;4.22;;;;;;;6.84;100.00;99417.50;4907716;29;20453;-84
2023/04/13 05:39:57;;;;;;;6.35;3.00;;;;;;;6.85;100.00;99430.22;4917981;29;20126;-84
2023/04/13 05:42:23;;;;;;;10.60;3.85;;;;;;;6.89;100.00;99436.59;4899290;29;20481;-84
2023/04/13 05:44:49;;;;;;;6.05;3.55;;;;;;;6.96;100.00;99435.84;4911101;29;20470;-84
2023/04/13 05:47:15;;;;;;;6.72;3.70;;;;;;;6.79;100.00;99426.22;4905014;29;20034;-85
2023/04/13 05:49:40;;;;;;;5.70;3.03;;;;;;;6.87;100.00;99436.19;4895474;29;20490;-85
2023/04/13 05:52:06;;;;;;;8.95;3.30;;;;;;;6.81;100.00;99446.09;4907894;29;20102;-85
2023/04/13 05:54:32;;;;;;;8.35;3.17;;;;;;;6.68;100.00;99426.97;4924179;29;20148;-85
2023/04/13 05:56:58;;;;;;;7.05;3.55;;;;;;;6.90;100.00;99449.34;4926893;29;20086;-84
2023/04/13 05:59:24;;;;;;;7.80;3.92;;;;;;;6.81;100.00;99451.66;4898355;29;20580;-84
2023/04/13 06:01:49;;;;;;;13.55;3.45;;;;;;;6.96;100.00;99453.34;4903288;29;20581;-84
2023/04/13 06:04:15;;;;;;;17.30;3.90;;;;;;;7.01;100.00;99461.31;4903728;29;20071;-84
2023/04/13 06:06:40;;;;;;;10.88;3.53;;;;;;;6.97;100.00;99459.72;4904723;29;20031;-85
2023/04/13 06:09:07;;;;;;;2.65;1.73;;;;;;;10.78;100.00;99478.38;4896076;29;20031;-79
2023/04/13 06:11:33;;;;;;;10.27;4.00;;;;;;;8.48;100.00;99477.72;4903974;29;20031;-82
2023/04/13 06:13:58;;;;;;;8.95;3.72;;;;;;;7.53;100.00;99477.88;4929211;29;20050;-80
2023/04/13 06:16:24;;;;;;;7.05;3.38;;;;;;;7.44;100.00;99483.81;4929496;29;20042;-80
2023/04/13 06:18:49;;;;;;;5.75;3.38;;;;;;;7.10;100.00;99491.56;4928940;29;20112;-80
2023/04/13 06:21:15;;;;;;;13.40;5.05;;;;;;;7.04;100.00;99488.38;4928538;29;20389;-82
2023/04/13 06:23:40;;;;;;;9.13;3.47;;;;;;;7.00;100.00;99482.00;4909618;29;20549;-81
2023/04/13 06:26:06;;;;;;;5.53;3.28;;;;;;;6.98;100.00;99494.66;4922742;29;20479;-81
2023/04/13 06:28:32;;;;;;;7.75;2.80;;;;;;;6.93;100.00;99487.50;4927659;29;20099;-81
2023/04/13 06:30:57;;;;;;;9.77;3.50;;;;;;;6.98;100.00;99506.63;4901428;29;20035;-81
2023/04/13 06:33:24;;;;;;;8.68;3.10;;;;;;;7.09;100.00;99521.41;4906289;29;20050;-81
2023/04/13 06:35:51;;;;;;;5.70;3.15;;;;;;;6.99;100.00;99521.31;4908302;29;20044;-81
2023/04/13 06:38:16;;;;;;;8.07;3.50;;;;;;;7.06;100.00;99522.19;4928417;29;20024;-81
2023/04/13 06:40:42;;;;;;;3.10;2.47;;;;;;;7.20;100.00;99529.00;4927648;29;20031;-81
2023/04/13 06:43:07;;;;;;;12.60;3.92;;;;;;;7.13;100.00;99525.00;4928506;29;20653;-81
2023/04/13 06:45:33;;;;;;;9.65;3.03;;;;;;;7.05;100.00;99528.91;4905135;29;20035;-81
2023/04/13 06:47:59;;;;;;;9.02;3.28;;;;;;;7.08;100.00;99539.28;4918718;29;20494;-81
2023/04/13 06:50:24;;;;;;;12.50;2.85;;;;;;;7.05;100.00;99540.03;4923724;29;20110;-81
2023/04/13 06:52:50;;;;;;;7.07;2.50;;;;;;;7.18;100.00;99539.72;4930046;29;20069;-81
2023/04/13 06:55:16;;;;;;;10.63;3.45;;;;;;;7.11;100.00;99538.50;4923363;29;20047;-81
2023/04/13 06:57:42;;;;;;;6.70;2.90;;;;;;;7.17;100.00;99547.28;4922531;29;20032;-81
2023/04/13 07:00:09;;;;;;;5.22;2.58;;;;;;;7.27;100.00;99551.31;4926646;29;20640;-81
2023/04/13 07:02:35;;;;;;;5.82;2.38;;;;;;;7.28;100.00;99558.50;4911137;29;20039;-80
2023/04/13 07:05:01;;;;;;;8.35;3.08;;;;;;;7.15;100.00;99554.41;4904117;29;20043;-81
2023/04/13 07:07:26;;;;;;;7.22;2.78;;;;;;;7.17;100.00;99552.84;4926012;29;20027;-81
2023/04/13 07:09:52;;;;;;;5.40;2.10;;;;;;;7.17;100.00;99549.25;4906124;29;20024;-81
2023/04/13 07:12:17;;;;;;;5.65;2.30;;;;;;;7.20;100.00;99557.63;4926985;29;20145;-81
2023/04/13 07:14:45;;;;;;;8.18;2.85;;;;;;;7.39;100.00;99576.03;4921450;29;20390;-81
2023/04/13 07:17:11;;;;;;;6.88;2.45;;;;;;;7.34;100.00;99568.06;4919882;29;20449;-81
2023/04/13 07:19:37;;;;;;;6.78;2.88;;;;;;;7.31;100.00;99563.28;4908893;29;20031;-82
2023/04/13 07:22:03;;;;;;;3.80;2.00;;;;;;;7.34;100.00;99573.63;4922287;29;20470;-82
2023/04/13 07:24:29;;;;;;;4.82;2.00;;;;;;;7.42;100.00;99577.25;4926097;29;20052;-82
2023/04/13 07:26:57;;;;;;;5.00;1.80;;;;;;;7.37;100.00;99578.41;4925146;29;20177;-81
2023/04/13 07:29:23;;;;;;;9.43;2.35;;;;;;;7.34;100.00;99579.22;4924580;29;20478;-80
2023/04/13 07:31:49;;;;;;;5.72;1.70;;;;;;;7.39;100.00;99584.41;4909685;29;20477;-80
2023/04/13 07:34:15;;;;;;;4.57;2.47;;;;;;;7.33;100.00;99591.50;4921596;29;20031;-81
2023/04/13 07:36:41;;;;;;;4.35;1.88;;;;;;;7.46;100.00;99597.56;4925397;29;20050;-81
2023/04/13 07:39:08;;;;;;;6.43;1.90;;;;;;;7.33;100.00;99588.72;4909552;29;20268;-81
2023/04/13 07:41:36;;;;;;;3.85;2.08;;;;;;;7.39;100.00;99592.75;4924601;29;20651;-80
2023/04/13 07:44:03;;;;;;;4.60;2.10;;;;;;;7.43;100.00;99599.13;4932202;29;20111;-80
2023/04/13 07:46:29;;;;;;;5.07;2.53;;;;;;;7.45;100.00;99599.56;4932301;29;20651;-80
2023/04/13 07:48:54;;;;;;;6.07;2.40;;;;;;;7.58;100.00;99590.88;4933127;29;20038;-80
2023/04/13 07:51:20;;;;;;;6.22;2.78;;;;;;;7.52;100.00;99602.38;4917864;29;20501;-80
2023/04/13 07:53:46;;;;;;;4.75;2.53;;;;;;;7.52;100.00;99613.50;4913119;29;20035;-80
2023/04/13 07:56:11;;;;;;;4.38;2.20;;;;;;;7.51;100.00;99613.91;4927959;29;20038;-80
2023/04/13 07:58:37;;;;;;;5.95;2.38;;;;;;;7.50;100.00;99615.09;4930487;29;20032;-79
2023/04/13 08:01:02;;;;;;;9.85;2.78;;;;;;;7.46;100.00;99603.94;4919805;29;20023;-79
2023/04/13 08:03:33;;;;;;;10.30;2.88;;;;;;;7.57;100.00;99622.69;4911038;29;20036;-79
2023/04/13 08:05:59;;;;;;;8.82;2.83;;;;;;;7.62;100.00;99627.91;4923947;29;20051;-79
2023/04/13 08:08:25;;;;;;;7.97;3.10;;;;;;;7.58;100.00;99632.66;4914406;29;20039;-80
2023/04/13 08:10:51;;;;;;;5.57;2.83;;;;;;;7.67;100.00;99633.91;4918565;29;20046;-80
2023/04/13 08:13:16;;;;;;;4.65;2.72;;;;;;;7.62;100.00;99619.56;4919599;29;20028;-80
2023/04/13 08:15:41;;;;;;;5.30;2.38;;;;;;;7.72;100.00;99629.97;4925666;29;20034;-79
2023/04/13 08:18:07;;;;;;;22.67;3.33;;;;;;;7.79;100.00;99638.34;4917940;29;20020;-79
2023/04/13 08:20:34;;;;;;;4.47;2.40;;;;;;;7.81;100.00;99635.97;4927067;29;20032;-79
2023/04/13 08:23:00;;;;;;;6.30;2.28;;;;;;;7.86;100.00;99632.84;4912994;29;20047;-79
2023/04/13 08:25:25;;;;;;;4.78;2.00;;;;;;;8.03;100.00;99634.09;4930183;29;20031;-80
2023/04/13 08:27:51;;;;;;;8.13;2.10;;;;;;;8.05;100.00;99647.63;4908456;29;20036;-78
2023/04/13 08:30:16;;;;;;;2.42;1.95;;;;;;;8.17;100.00;99650.09;4924869;29;20035;-81
2023/04/13 08:32:42;;;;;;;10.20;3.08;;;;;;;8.25;100.00;99654.50;4917555;29;20167;-81
2023/04/13 08:35:10;;;;;;;7.82;1.98;;;;;;;8.35;100.00;99662.09;4912655;29;20039;-79
2023/04/13 08:37:37;;;;;;;11.43;3.60;;;;;;;8.48;100.00;99673.72;4909189;29;20027;-80
2023/04/13 08:40:06;;;;;;;8.25;2.20;;;;;;;8.46;100.00;99667.75;4917950;29;20028;-80
2023/04/13 08:42:36;;;;;;;6.07;2.08;;;;;;;8.30;100.00;99675.63;4919806;29;20032;-81
2023/04/13 08:45:02;;;;;;;7.32;2.80;;;;;;;8.22;100.00;99677.59;4909741;29;20027;-80
2023/04/13 08:47:28;;;;;;;2.53;1.95;;;;;;;8.12;100.00;99683.91;4927252;29;20043;-80
2023/04/13 08:49:58;;;;;;;8.63;3.38;;;;;;;8.02;100.00;99690.22;4904869;29;20028;-80
2023/04/13 08:52:25;;;;;;;8.15;3.40;;;;;;;7.95;100.00;99702.13;4928951;29;20482;-80
2023/04/13 08:54:53;;;;;;;15.40;3.30;;;;;;;7.90;100.00;99706.06;4926118;29;20039;-80
2023/04/13 08:57:20;;;;;;;6.90;2.10;;;;;;;7.78;100.00;99702.78;4916269;29;20082;-80
2023/04/13 08:59:46;;;;;;;6.90;1.70;;;;;;;7.68;100.00;99715.47;4925944;29;20173;-79
2023/04/13 09:02:12;;;;;;;7.55;1.70;;;;;;;7.70;100.00;99707.53;4925927;29;20393;-79
2023/04/13 09:04:42;;;;;;;6.68;1.60;;;;;;;7.72;100.00;99728.25;4929075;29;20032;-79
2023/04/13 09:07:15;;;;;;;2.72;1.40;;;;;;;7.79;100.00;99737.84;4909610;29;20402;-79
2023/04/13 09:09:42;;;;;;;6.47;1.83;;;;;;;7.73;100.00;99731.81;4911374;29;20024;-79
2023/04/13 09:12:08;;;;;;;2.47;1.20;;;;;;;7.66;100.00;99735.34;4925335;29;20035;-78
2023/04/13 09:14:35;;;;;;;3.85;1.60;;;;;;;7.53;100.00;99726.50;4922735;29;20032;-78
2023/04/13 09:17:00;;;;;;;4.38;1.75;;;;;;;7.71;100.00;99740.56;4928698;29;20032;-79
2023/04/13 09:19:32;;;;;;;6.28;1.77;;;;;;;7.53;100.00;99748.78;4930383;29;20443;-79
2023/04/13 09:21:57;;;;;;;7.27;2.40;;;;;;;7.75;100.00;99751.72;4926584;29;20038;-80
2023/04/13 09:24:23;;;;;;;7.00;1.70;;;;;;;7.81;100.00;99758.53;4913119;29;20474;-79
2023/04/13 09:26:49;;;;;;;9.70;2.00;;;;;;;8.13;100.00;99763.53;4931552;29;20485;-79
2023/04/13 09:29:16;;;;;;;7.57;2.15;;;;;;;8.34;100.00;99766.44;4925020;29;22847;-78
2023/04/13 09:31:42;;;;;;;4.68;2.97;;;;;;;8.55;100.00;99771.38;4908543;29;20031;-79
2023/04/13 09:34:09;;;;;;;8.32;2.25;;;;;;;8.47;100.00;99766.16;4920850;29;20074;-79
2023/04/13 09:36:35;;;;;;;7.95;2.22;;;;;;;8.44;100.00;99778.09;4912075;29;20020;-80
2023/04/13 09:39:02;;;;;;;12.35;3.13;;;;;;;8.53;100.00;99786.91;4930302;29;20482;-79
2023/04/13 09:41:29;;;;;;;9.32;2.30;;;;;;;8.57;100.00;99784.13;4924105;29;20055;-80
2023/04/13 09:43:54;;;;;;;4.30;2.13;;;;;;;8.65;100.00;99794.94;4933063;29;20071;-80
2023/04/13 09:46:19;;;;;;;8.50;2.83;;;;;;;8.80;100.00;99792.22;4917071;29;20142;-79
2023/04/13 09:48:45;;;;;;;14.45;3.63;;;;;;;8.93;100.00;99794.25;4910447;29;20062;-80
2023/04/13 09:51:10;;;;;;;5.47;2.72;;;;;;;8.95;100.00;99788.28;4921916;29;20042;-80
2023/04/13 09:53:46;;;;;;;9.98;2.47;;;;;;;9.11;100.00;99797.09;4925851;29;20545;-80
2023/04/13 09:56:11;;;;;;;10.18;3.33;;;;;;;9.03;100.00;99825.41;4907656;29;20516;-82
2023/04/13 09:58:46;;;;;;;11.93;3.40;;;;;;;8.90;100.00;99817.38;4928626;29;20028;-81
2023/04/13 10:01:15;;;;;;;11.52;2.80;;;;;;;8.94;100.00;99823.75;4922451;29;20118;-81
2023/04/13 10:03:42;;;;;;;12.63;2.60;;;;;;;8.98;100.00;99834.94;4924739;29;20032;-82
2023/04/13 10:06:08;;;;;;;9.98;3.22;;;;;;;9.14;100.00;99843.75;4909218;29;20410;-81
2023/04/13 10:08:36;;;;;;;13.55;3.20;;;;;;;9.09;100.00;99821.03;4926196;29;20036;-81
2023/04/13 10:11:03;;;;;;;9.60;2.83;;;;;;;9.12;100.00;99842.56;4921590;29;20104;-81
2023/04/13 10:13:44;;;;;;;19.85;4.63;;;;;;;9.16;100.00;99846.16;4930786;29;20110;-81
2023/04/13 10:16:28;;;;;;;10.27;4.28;;;;;;;9.13;100.00;99861.72;4912701;29;20074;-81
2023/04/13 10:19:02;;;;;;;15.38;3.78;;;;;;;9.20;100.00;99863.72;4934486;29;20031;-81
2023/04/13 10:21:34;;;;;;;8.02;2.50;;;;;;;9.26;100.00;99866.94;4924343;29;20047;-81
2023/04/13 10:24:03;;;;;;;16.93;3.23;;;;;;;9.25;100.00;99868.94;4912308;29;20023;-81
2023/04/13 10:26:32;;;;;;;11.43;2.42;;;;;;;9.35;100.00;99875.75;4905293;29;20066;-79
2023/04/13 10:29:00;;;;;;;11.05;3.00;;;;;;;9.29;100.00;99880.91;4903965;29;20158;-80
2023/04/13 10:31:38;;;;;;;12.80;3.53;;;;;;;9.32;100.00;99887.72;4926279;29;22898;-80
2023/04/13 10:34:05;;;;;;;9.68;3.05;;;;;;;9.32;100.00;99882.13;4918858;29;20035;-79
2023/04/13 10:36:38;;;;;;;7.88;3.28;;;;;;;9.40;100.00;99894.13;4927884;29;20049;-81
2023/04/13 10:39:04;;;;;;;10.98;2.33;;;;;;;9.48;100.00;99907.72;4930682;29;20028;-80
2023/04/13 10:41:29;;;;;;;14.05;3.60;;;;;;;9.44;100.00;99901.31;4923985;29;20086;-80
2023/04/13 10:44:06;;;;;;;11.63;3.10;;;;;;;9.35;100.00;99903.69;4913553;29;20418;-81
2023/04/13 10:46:33;;;;;;;9.00;3.00;;;;;;;9.33;100.00;99897.69;4909039;29;20570;-80
2023/04/13 10:49:00;;;;;;;9.48;2.60;;;;;;;9.34;100.00;99908.47;4902399;29;20604;-80
2023/04/13 10:51:36;;;;;;;10.48;2.92;;;;;;;9.33;100.00;99906.06;4904862;29;20040;-81
2023/04/13 10:54:03;;;;;;;12.65;3.67;;;;;;;9.16;100.00;99908.38;4925807;29;20391;-81
2023/04/13 10:56:28;;;;;;;19.50;2.72;;;;;;;9.34;100.00;99918.84;4920760;29;20027;-81
2023/04/13 10:58:54;;;;;;;11.63;3.35;;;;;;;9.32;100.00;99932.41;4926900;29;20036;-81
2023/04/13 11:01:19;;;;;;;11.00;3.35;;;;;;;9.39;100.00;99924.03;4923400;29;20067;-80
2023/04/13 11:03:46;;;;;;;12.27;3.40;;;;;;;9.50;100.00;99924.88;4926582;29;20038;-80
2023/04/13 11:06:11;;;;;;;16.33;3.50;;;;;;;9.51;100.00;99923.69;4915837;29;20036;-80
2023/04/13 11:08:38;;;;;;;11.30;2.58;;;;;;;9.42;100.00;99942.00;4923111;29;20028;-80
2023/04/13 11:11:04;;;;;;;10.23;2.50;;;;;;;9.35;100.00;99935.19;4928131;29;20114;-81
2023/04/13 11:13:30;;;;;;;6.07;2.13;;;;;;;9.38;100.00;99949.56;4927114;29;20442;-80
2023/04/13 11:16:03;;;;;;;9.95;3.28;;;;;;;9.26;100.00;99951.53;4928328;29;20398;-81
2023/04/13 11:18:28;;;;;;;9.50;2.85;;;;;;;9.27;100.00;99952.31;4910388;29;20058;-81
2023/04/13 11:20:54;;;;;;;13.25;3.50;;;;;;;9.33;100.00;99967.50;4907402;29;20502;-81
2023/04/13 11:23:22;;;;;;;16.02;3.85;;;;;;;9.27;100.00;99969.84;4931077;29;20569;-81
2023/04/13 11:26:00;;;;;;;10.20;3.85;;;;;;;9.25;100.00;99965.88;4912921;29;20032;-81
2023/04/13 11:28:38;;;;;;;13.63;2.90;;;;;;;9.14;100.00;99980.56;4911384;29;20051;-81
2023/04/13 11:31:06;;;;;;;6.75;2.13;;;;;;;9.10;100.00;99965.78;4908777;29;20537;-81